createdAt,value
2023-08-25T00:01:35.801Z,9.00
2023-08-25T00:04:03.205Z,8.80
2023-08-25T00:06:29.959Z,8.85
2023-08-25T00:08:56.716Z,8.68
2023-08-25T00:11:23.514Z,8.93
2023-08-25T00:13:50.295Z,9.02
2023-08-25T00:16:17.092Z,8.73
2023-08-25T00:18:44.700Z,8.02
2023-08-25T00:21:12.353Z,10.00
2023-08-25T00:23:39.318Z,8.10
2023-08-25T00:26:06.043Z,8.40
2023-08-25T00:28:32.738Z,8.30
2023-08-25T00:30:59.468Z,7.85
2023-08-25T00:33:26.618Z,7.32
2023-08-25T00:35:53.411Z,8.35
2023-08-25T00:38:20.263Z,8.60
2023-08-25T00:40:46.932Z,9.68
2023-08-25T00:43:13.762Z,10.70
2023-08-25T00:45:42.362Z,9.27
2023-08-25T00:48:10.977Z,9.93
2023-08-25T00:50:39.094Z,8.37
2023-08-25T00:53:06.909Z,7.65
2023-08-25T00:55:33.938Z,8.23
2023-08-25T00:58:00.969Z,8.18
2023-08-25T01:00:28.137Z,7.53
2023-08-25T01:02:55.594Z,7.82
2023-08-25T01:05:22.519Z,8.20
2023-08-25T01:07:49.829Z,7.78
2023-08-25T01:10:17.635Z,8.40
2023-08-25T01:13:19.371Z,8.18
2023-08-25T01:15:50.334Z,7.70
2023-08-25T01:18:23.825Z,8.93
2023-08-25T01:20:52.219Z,8.68
2023-08-25T01:23:42.319Z,9.55
2023-08-25T01:26:10.901Z,8.63
2023-08-25T01:28:42.359Z,9.57
2023-08-25T01:31:09.545Z,9.07
2023-08-25T01:33:36.696Z,9.27
2023-08-25T01:36:29.902Z,9.00
2023-08-25T01:39:07.783Z,9.27
2023-08-25T01:41:45.806Z,8.63
2023-08-25T01:44:15.214Z,9.75
2023-08-25T01:46:45.422Z,9.65
2023-08-25T01:49:14.729Z,8.57
2023-08-25T01:51:42.916Z,8.50
2023-08-25T01:54:09.819Z,12.00
2023-08-25T01:56:36.562Z,9.88
2023-08-25T01:59:03.432Z,10.23
2023-08-25T02:01:32.071Z,11.98
2023-08-25T02:03:59.445Z,10.95
2023-08-25T02:06:26.431Z,10.00
2023-08-25T02:08:53.204Z,10.73
2023-08-25T02:11:20.568Z,11.07
2023-08-25T02:13:47.295Z,11.88
2023-08-25T02:16:14.030Z,12.85
2023-08-25T02:18:40.837Z,12.00
2023-08-25T02:21:07.884Z,14.20
2023-08-25T02:23:34.614Z,12.98
2023-08-25T02:26:01.288Z,13.40
2023-08-25T02:28:28.829Z,15.13
2023-08-25T02:30:55.660Z,14.70
2023-08-25T02:33:22.386Z,13.40
2023-08-25T02:35:49.223Z,13.63
2023-08-25T02:38:16.419Z,13.52
2023-08-25T02:40:43.572Z,12.10
2023-08-25T02:43:10.401Z,12.68
2023-08-25T02:45:37.736Z,13.45
2023-08-25T02:48:05.103Z,12.50
2023-08-25T02:50:32.057Z,13.10
2023-08-25T02:52:58.900Z,12.70
2023-08-25T02:55:25.760Z,11.70
2023-08-25T02:57:53.676Z,10.55
2023-08-25T03:00:24.404Z,11.82
2023-08-25T03:02:51.713Z,11.05
2023-08-25T03:05:19.241Z,10.43
2023-08-25T03:07:46.054Z,10.18
2023-08-25T03:10:13.389Z,12.98
2023-08-25T03:12:41.023Z,12.95
2023-08-25T03:15:08.554Z,11.95
2023-08-25T03:17:35.656Z,12.13
2023-08-25T03:20:03.927Z,11.45
2023-08-25T03:22:31.107Z,10.18
2023-08-25T03:24:57.986Z,10.27
2023-08-25T03:27:24.661Z,10.15
2023-08-25T03:29:51.493Z,10.20
2023-08-25T03:32:18.205Z,10.18
2023-08-25T03:34:44.918Z,10.60
2023-08-25T03:37:12.858Z,10.45
2023-08-25T03:39:39.771Z,9.98
2023-08-25T03:42:06.859Z,9.85
2023-08-25T03:44:33.639Z,9.50
2023-08-25T03:47:00.607Z,10.20
2023-08-25T03:49:29.587Z,9.85
2023-08-25T03:51:57.592Z,9.77
2023-08-25T03:54:24.535Z,10.18
2023-08-25T03:56:51.373Z,9.23
2023-08-25T03:59:18.111Z,10.02
2023-08-25T04:01:44.911Z,10.02
2023-08-25T04:04:11.619Z,10.48
2023-08-25T04:06:38.426Z,9.05
2023-08-25T04:09:05.269Z,9.65
2023-08-25T04:11:32.130Z,9.05
2023-08-25T04:13:58.874Z,8.43
2023-08-25T04:16:25.716Z,10.00
2023-08-25T04:18:52.436Z,10.07
2023-08-25T04:21:19.847Z,10.43
2023-08-25T04:23:46.515Z,8.55
2023-08-25T04:26:13.242Z,10.10
2023-08-25T04:28:39.975Z,11.93
2023-08-25T04:31:06.712Z,11.57
2023-08-25T04:33:33.492Z,12.75
2023-08-25T04:36:00.236Z,13.93
2023-08-25T04:38:27.024Z,12.82
2023-08-25T04:40:53.742Z,14.68
2023-08-25T04:43:20.549Z,15.63
2023-08-25T04:45:47.804Z,17.60
2023-08-25T04:48:14.686Z,16.20
2023-08-25T04:50:41.402Z,18.67
2023-08-25T04:53:08.758Z,17.50
2023-08-25T04:55:36.113Z,18.88
2023-08-25T04:58:04.142Z,18.77
2023-08-25T05:00:31.128Z,18.45
2023-08-25T05:02:57.928Z,16.33
2023-08-25T05:05:24.705Z,20.88
2023-08-25T05:07:52.730Z,19.42
2023-08-25T05:10:19.826Z,21.50
2023-08-25T05:12:46.503Z,19.60
2023-08-25T05:15:13.308Z,20.95
2023-08-25T05:17:40.040Z,20.42
2023-08-25T05:20:09.317Z,21.23
2023-08-25T05:22:36.318Z,24.33
2023-08-25T05:25:03.056Z,26.90
2023-08-25T05:27:29.884Z,31.77
2023-08-25T05:29:56.603Z,34.58
2023-08-25T05:32:23.870Z,34.10
2023-08-25T05:34:50.706Z,33.08
2023-08-25T05:37:17.406Z,38.40
2023-08-25T05:39:44.187Z,37.13
2023-08-25T05:42:11.265Z,37.08
2023-08-25T05:44:37.969Z,38.38
2023-08-25T05:47:04.793Z,41.28
2023-08-25T05:49:31.617Z,40.67
2023-08-25T05:51:58.335Z,37.20
2023-08-25T05:54:25.262Z,35.25
2023-08-25T05:56:53.326Z,38.55
2023-08-25T05:59:20.214Z,37.58
2023-08-25T06:01:46.993Z,37.88
2023-08-25T06:04:13.802Z,37.85
2023-08-25T06:06:42.960Z,35.42
2023-08-25T06:09:09.867Z,33.88
2023-08-25T06:11:37.319Z,34.78
2023-08-25T06:14:04.116Z,33.83
2023-08-25T06:16:30.875Z,32.58
2023-08-25T06:18:57.709Z,30.45
2023-08-25T06:21:24.448Z,32.35
2023-08-25T06:23:51.132Z,32.15
2023-08-25T06:26:18.631Z,28.17
2023-08-25T06:28:45.347Z,29.40
2023-08-25T06:31:12.369Z,27.85
2023-08-25T06:33:40.179Z,27.75
2023-08-25T06:36:07.023Z,27.05
2023-08-25T06:38:42.213Z,23.92
2023-08-25T06:41:17.270Z,20.83
2023-08-25T06:43:43.951Z,21.10
2023-08-25T06:46:10.723Z,18.65
2023-08-25T06:48:37.547Z,18.90
2023-08-25T06:51:04.387Z,20.15
2023-08-25T06:53:31.247Z,17.98
2023-08-25T06:55:58.050Z,17.20
2023-08-25T06:58:24.804Z,17.52
2023-08-25T07:00:52.165Z,15.13
2023-08-25T07:03:18.988Z,14.13
2023-08-25T07:05:45.726Z,13.77
2023-08-25T07:08:12.481Z,12.82
2023-08-25T07:10:39.315Z,11.90
2023-08-25T07:13:06.060Z,12.93
2023-08-25T07:15:33.130Z,12.18
2023-08-25T07:17:59.973Z,10.60
2023-08-25T07:20:26.911Z,10.80
2023-08-25T07:22:53.616Z,9.88
2023-08-25T07:25:20.353Z,10.55
2023-08-25T07:27:47.081Z,11.00
2023-08-25T07:30:13.831Z,12.10
2023-08-25T07:32:40.602Z,10.43
2023-08-25T07:35:08.947Z,10.82
2023-08-25T07:37:35.810Z,10.18
2023-08-25T07:40:05.585Z,11.52
2023-08-25T07:42:32.479Z,15.85
2023-08-25T07:44:59.557Z,18.13
2023-08-25T07:47:26.361Z,19.65
2023-08-25T07:49:53.609Z,18.60
2023-08-25T07:52:20.333Z,19.20
2023-08-25T07:54:47.057Z,16.75
2023-08-25T07:57:14.139Z,17.25
2023-08-25T07:59:40.849Z,18.58
2023-08-25T08:02:07.635Z,15.98
2023-08-25T08:04:34.375Z,15.75
2023-08-25T08:07:02.425Z,14.57
2023-08-25T08:09:29.904Z,13.00
2023-08-25T08:11:57.241Z,11.73
2023-08-25T08:14:39.871Z,13.05
2023-08-25T08:17:11.119Z,11.05
2023-08-25T08:19:37.949Z,9.88
2023-08-25T08:22:04.953Z,9.40
2023-08-25T08:24:47.614Z,8.27
2023-08-25T08:27:18.026Z,8.00
2023-08-25T08:29:47.110Z,7.78
2023-08-25T08:32:14.915Z,7.65
2023-08-25T08:34:41.895Z,8.30
2023-08-25T08:37:08.623Z,8.00
2023-08-25T08:39:38.466Z,9.02
2023-08-25T08:42:08.844Z,8.43
2023-08-25T08:44:37.717Z,7.15
2023-08-25T08:47:04.950Z,8.57
2023-08-25T08:49:33.680Z,7.68
2023-08-25T08:52:02.602Z,7.80
2023-08-25T08:54:30.931Z,7.25
2023-08-25T08:56:57.994Z,6.90
2023-08-25T08:59:24.783Z,7.88
2023-08-25T09:01:52.444Z,8.50
2023-08-25T09:04:24.195Z,9.52
2023-08-25T09:06:52.540Z,8.38
2023-08-25T09:09:20.844Z,7.78
2023-08-25T09:11:48.621Z,8.25
2023-08-25T09:14:29.477Z,7.53
2023-08-25T09:16:57.311Z,6.50
2023-08-25T09:19:24.652Z,7.13
2023-08-25T09:21:52.003Z,5.97
2023-08-25T09:24:22.961Z,5.85
2023-08-25T09:26:52.758Z,7.00
2023-08-25T09:29:19.887Z,6.38
2023-08-25T09:31:46.673Z,5.05
2023-08-25T09:34:15.386Z,5.93
2023-08-25T09:36:56.207Z,5.85
2023-08-25T09:39:24.009Z,5.40
2023-08-25T09:41:51.236Z,5.38
2023-08-25T09:44:18.459Z,5.28
2023-08-25T09:46:46.498Z,5.03
2023-08-25T09:49:14.940Z,5.15
2023-08-25T09:51:43.692Z,5.10
2023-08-25T09:54:13.486Z,5.05
2023-08-25T09:56:41.557Z,5.40
2023-08-25T09:59:09.964Z,5.85
2023-08-25T10:01:44.401Z,5.33
2023-08-25T10:04:11.862Z,5.00
2023-08-25T10:06:39.760Z,5.13
2023-08-25T10:09:07.695Z,5.10
2023-08-25T10:11:42.758Z,4.40
2023-08-25T10:14:12.971Z,4.68
2023-08-25T10:16:46.446Z,4.97
2023-08-25T10:19:15.692Z,4.80
2023-08-25T10:24:18.673Z,4.10
2023-08-25T10:26:46.569Z,4.70
2023-08-25T10:29:17.395Z,4.25
2023-08-25T10:31:53.189Z,5.47
2023-08-25T10:34:43.945Z,4.13
2023-08-25T10:37:23.292Z,4.53
2023-08-25T10:39:52.398Z,4.22
2023-08-25T10:42:28.642Z,4.53
2023-08-25T10:45:05.459Z,4.35
2023-08-25T10:47:32.510Z,3.60
2023-08-25T10:50:04.767Z,3.15
2023-08-25T10:52:32.773Z,3.13
2023-08-25T10:55:33.384Z,3.38
2023-08-25T10:58:05.715Z,3.03
2023-08-25T11:00:37.746Z,3.28
2023-08-25T11:03:05.785Z,3.45
2023-08-25T11:05:36.007Z,4.93
2023-08-25T11:08:04.343Z,3.72
2023-08-25T11:10:35.235Z,3.80
2023-08-25T11:13:10.272Z,3.60
2023-08-25T11:15:39.227Z,3.55
2023-08-25T11:18:09.400Z,3.83
2023-08-25T11:20:45.827Z,4.07
2023-08-25T11:23:20.158Z,3.35
2023-08-25T11:25:47.953Z,3.92
2023-08-25T11:28:14.724Z,4.13
2023-08-25T11:30:41.738Z,3.65
2023-08-25T11:33:10.188Z,3.50
2023-08-25T11:35:37.300Z,3.65
2023-08-25T11:38:04.214Z,3.17
2023-08-25T11:40:31.721Z,3.40
2023-08-25T11:42:58.955Z,3.38
2023-08-25T11:45:29.754Z,3.20
2023-08-25T11:47:57.349Z,2.88
2023-08-25T11:50:26.228Z,3.45
2023-08-25T11:52:55.991Z,2.80
2023-08-25T11:55:34.396Z,2.83
2023-08-25T11:58:08.393Z,3.05
2023-08-25T12:00:39.370Z,3.03
2023-08-25T12:03:07.338Z,3.70
2023-08-25T12:05:36.628Z,3.72
2023-08-25T12:10:37.981Z,3.63
2023-08-25T12:13:05.058Z,4.00
2023-08-25T12:15:46.472Z,3.95
2023-08-25T12:18:14.482Z,4.80
2023-08-25T12:20:45.368Z,4.30
2023-08-25T12:23:12.162Z,4.78
2023-08-25T12:25:38.989Z,4.60
2023-08-25T12:28:06.080Z,4.70
2023-08-25T12:30:32.773Z,4.85
2023-08-25T12:32:59.609Z,4.72
2023-08-25T12:35:27.760Z,4.47
2023-08-25T12:37:54.687Z,4.03
2023-08-25T12:40:21.895Z,5.35
2023-08-25T12:42:51.393Z,4.30
2023-08-25T12:45:18.395Z,4.30
2023-08-25T12:47:45.831Z,4.70
2023-08-25T12:50:12.751Z,4.22
2023-08-25T12:52:39.464Z,4.85
2023-08-25T12:55:19.641Z,4.03
2023-08-25T12:57:48.669Z,3.75
2023-08-25T13:00:16.011Z,3.97
2023-08-25T13:02:43.776Z,4.57
2023-08-25T13:05:10.828Z,3.90
2023-08-25T13:07:41.051Z,4.07
2023-08-25T13:10:09.638Z,4.63
2023-08-25T13:12:36.985Z,3.83
2023-08-25T13:15:05.130Z,3.92
2023-08-25T13:17:31.921Z,3.80
2023-08-25T13:19:58.887Z,4.30
2023-08-25T13:22:25.650Z,3.60
2023-08-25T13:24:52.353Z,4.50
2023-08-25T13:27:19.796Z,4.18
2023-08-25T13:29:46.556Z,4.53
2023-08-25T13:32:13.454Z,4.15
2023-08-25T13:34:40.278Z,4.35
2023-08-25T13:37:07.063Z,3.90
2023-08-25T13:39:34.962Z,4.30
2023-08-25T13:42:01.833Z,4.30
2023-08-25T13:44:34.419Z,4.78
2023-08-25T13:47:02.711Z,4.18
2023-08-25T13:49:29.468Z,4.53
2023-08-25T13:51:56.198Z,4.72
2023-08-25T13:54:23.494Z,4.28
2023-08-25T13:56:50.813Z,4.75
2023-08-25T13:59:18.131Z,4.55
2023-08-25T14:01:44.926Z,5.03
2023-08-25T14:04:11.732Z,4.97
2023-08-25T14:06:38.523Z,5.45
2023-08-25T14:09:06.039Z,5.20
2023-08-25T14:11:32.918Z,4.80
2023-08-25T14:14:00.046Z,4.70
2023-08-25T14:16:26.885Z,4.30
2023-08-25T14:18:53.674Z,5.65
2023-08-25T14:21:21.062Z,5.18
2023-08-25T14:23:47.904Z,4.43
2023-08-25T14:26:14.750Z,5.00
2023-08-25T14:28:41.821Z,4.88
2023-08-25T14:31:08.682Z,5.05
2023-08-25T14:33:35.586Z,4.65
2023-08-25T14:36:02.443Z,5.30
2023-08-25T14:38:29.251Z,5.20
2023-08-25T14:40:56.007Z,4.97
2023-08-25T14:43:22.943Z,5.30
2023-08-25T14:45:49.839Z,5.53
2023-08-25T14:48:16.677Z,5.30
2023-08-25T14:50:43.577Z,5.30
2023-08-25T14:53:11.759Z,5.00
2023-08-25T14:55:38.760Z,5.32
2023-08-25T14:58:05.542Z,5.63
2023-08-25T15:00:32.349Z,4.40
2023-08-25T15:02:59.478Z,5.53
2023-08-25T15:05:26.285Z,5.18
2023-08-25T15:07:53.605Z,5.32
2023-08-25T15:10:20.618Z,5.80
2023-08-25T15:12:47.546Z,4.85
2023-08-25T15:15:14.332Z,5.53
2023-08-25T15:17:41.160Z,5.85
2023-08-25T15:20:08.604Z,5.60
2023-08-25T15:22:35.419Z,5.70
2023-08-25T15:25:02.356Z,5.72
2023-08-25T15:27:29.099Z,5.82
2023-08-25T15:29:57.339Z,5.53
2023-08-25T15:32:24.322Z,6.07
2023-08-25T15:34:51.271Z,6.10
2023-08-25T15:37:17.988Z,5.28
2023-08-25T15:39:44.693Z,6.65
2023-08-25T15:42:11.501Z,6.15
2023-08-25T15:44:38.293Z,6.63
2023-08-25T15:47:05.168Z,5.60
2023-08-25T15:49:34.344Z,6.63
2023-08-25T15:52:01.111Z,6.60
2023-08-25T15:54:27.780Z,6.63
2023-08-25T15:56:54.510Z,6.88
2023-08-25T15:59:21.254Z,6.28
2023-08-25T16:01:48.615Z,6.70
2023-08-25T16:04:15.352Z,6.07
2023-08-25T16:06:42.182Z,6.30
2023-08-25T16:09:08.931Z,6.95
2023-08-25T16:11:35.623Z,6.00
2023-08-25T16:14:03.536Z,5.22
2023-08-25T16:16:30.332Z,6.45
2023-08-25T16:18:57.122Z,6.15
2023-08-25T16:21:25.830Z,6.65
2023-08-25T16:23:52.597Z,6.57
2023-08-25T16:26:19.308Z,6.32
2023-08-25T16:28:45.985Z,7.03
2023-08-25T16:31:16.128Z,6.72
2023-08-25T16:33:43.531Z,6.20
2023-08-25T16:36:11.535Z,5.80
2023-08-25T16:38:38.229Z,6.35
2023-08-25T16:41:05.148Z,6.75
2023-08-25T16:43:31.887Z,6.30
2023-08-25T16:45:58.669Z,6.30
2023-08-25T16:48:25.470Z,5.97
2023-08-25T16:50:52.307Z,6.50
2023-08-25T16:53:20.370Z,6.57
2023-08-25T16:55:47.541Z,5.80
2023-08-25T16:58:15.250Z,6.43
2023-08-25T17:00:42.602Z,12.10
2023-08-25T17:03:09.939Z,7.25
2023-08-25T17:05:36.807Z,6.70
2023-08-25T17:08:05.751Z,6.90
2023-08-25T17:10:33.284Z,6.95
2023-08-25T17:13:00.335Z,6.53
2023-08-25T17:15:32.747Z,7.25
2023-08-25T17:17:59.479Z,6.43
2023-08-25T17:20:26.149Z,6.85
2023-08-25T17:22:53.062Z,6.90
2023-08-25T17:25:20.112Z,9.32
2023-08-25T17:27:47.669Z,7.95
2023-08-25T17:30:14.704Z,6.45
2023-08-25T17:32:41.704Z,6.65
2023-08-25T17:35:08.807Z,6.80
2023-08-25T17:37:35.674Z,7.00
2023-08-25T17:40:04.597Z,7.03
2023-08-25T17:42:31.366Z,6.97
2023-08-25T17:44:58.569Z,9.45
2023-08-25T17:47:26.302Z,12.48
2023-08-25T17:49:54.279Z,21.90
2023-08-25T17:52:21.937Z,10.00
2023-08-25T17:54:48.704Z,6.93
2023-08-25T17:57:18.414Z,7.32
2023-08-25T17:59:45.127Z,6.22
2023-08-25T18:02:12.101Z,5.68
2023-08-25T18:04:39.603Z,6.20
2023-08-25T18:07:06.819Z,5.90
2023-08-25T18:09:33.713Z,6.15
2023-08-25T18:12:01.665Z,7.07
2023-08-25T18:14:29.488Z,6.18
2023-08-25T18:16:56.723Z,6.75
2023-08-25T18:19:23.609Z,6.28
2023-08-25T18:21:50.325Z,7.93
2023-08-25T18:24:17.466Z,7.60
2023-08-25T18:26:44.999Z,7.10
2023-08-25T18:29:12.328Z,8.25
2023-08-25T18:31:39.206Z,8.00
2023-08-25T18:34:06.105Z,6.88
2023-08-25T18:36:32.970Z,7.28
2023-08-25T18:38:59.658Z,6.90
2023-08-25T18:41:26.665Z,7.32
2023-08-25T18:43:53.697Z,7.20
2023-08-25T18:46:22.359Z,6.28
2023-08-25T18:48:49.460Z,6.82
2023-08-25T18:51:16.754Z,6.88
2023-08-25T18:53:43.634Z,6.97
2023-08-25T18:56:12.649Z,9.10
2023-08-25T18:58:39.616Z,10.93
2023-08-25T19:01:06.747Z,6.82
2023-08-25T19:03:33.745Z,7.28
2023-08-25T19:06:04.628Z,6.80
2023-08-25T19:08:35.507Z,6.13
2023-08-25T19:11:02.355Z,6.90
2023-08-25T19:13:30.075Z,9.00
2023-08-25T19:16:01.539Z,8.40
2023-08-25T19:18:29.164Z,10.90
2023-08-25T19:21:03.170Z,8.85
2023-08-25T19:23:34.937Z,7.65
2023-08-25T19:26:05.509Z,7.40
2023-08-25T19:28:32.255Z,8.90
2023-08-25T19:31:03.364Z,8.82
2023-08-25T19:33:31.031Z,9.23
2023-08-25T19:35:58.186Z,7.40
2023-08-25T19:38:28.378Z,9.80
2023-08-25T19:40:55.637Z,9.95
2023-08-25T19:43:22.733Z,8.40
2023-08-25T19:45:51.286Z,8.10
2023-08-25T19:48:18.259Z,7.37
2023-08-25T19:50:44.957Z,14.75
2023-08-25T19:53:11.696Z,12.20
2023-08-25T19:55:42.025Z,6.85
2023-08-25T19:58:10.143Z,6.90
2023-08-25T20:00:37.642Z,6.90
2023-08-25T20:03:05.115Z,6.80
2023-08-25T20:05:31.924Z,9.05
2023-08-25T20:07:58.766Z,6.70
2023-08-25T20:10:27.142Z,6.47
2023-08-25T20:12:54.640Z,6.80
2023-08-25T20:15:22.012Z,7.75
2023-08-25T20:17:48.850Z,8.65
2023-08-25T20:20:15.647Z,8.23
2023-08-25T20:22:42.485Z,6.55
2023-08-25T20:25:10.649Z,8.63
2023-08-25T20:27:37.934Z,8.68
2023-08-25T20:30:09.027Z,8.00
2023-08-25T20:32:36.090Z,7.00
2023-08-25T20:35:03.203Z,8.20
2023-08-25T20:37:29.881Z,7.65
2023-08-25T20:39:56.624Z,7.80
2023-08-25T20:42:23.564Z,8.35
2023-08-25T20:44:50.253Z,8.65
2023-08-25T20:47:17.023Z,7.75
2023-08-25T20:49:43.811Z,8.27
2023-08-25T20:52:10.488Z,8.25
2023-08-25T20:54:37.346Z,8.65
2023-08-25T20:57:07.342Z,9.43
2023-08-25T20:59:34.228Z,8.45
2023-08-25T21:02:01.038Z,9.85
2023-08-25T21:04:27.799Z,8.70
2023-08-25T21:06:54.553Z,9.23
2023-08-25T21:09:21.506Z,11.35
2023-08-25T21:11:48.339Z,9.15
2023-08-25T21:14:15.098Z,9.10
2023-08-25T21:16:41.930Z,8.77
2023-08-25T21:19:10.465Z,9.93
2023-08-25T21:21:40.230Z,10.35
2023-08-25T21:24:08.198Z,10.40
2023-08-25T21:26:35.222Z,10.77
2023-08-25T21:29:04.109Z,11.20
2023-08-25T21:31:31.683Z,13.32
2023-08-25T21:33:58.734Z,17.13
2023-08-25T21:36:25.588Z,15.27
2023-08-25T21:38:52.374Z,16.98
2023-08-25T21:41:19.370Z,16.40
2023-08-25T21:43:46.434Z,18.63
2023-08-25T21:46:13.481Z,19.75
2023-08-25T21:48:40.276Z,18.63
2023-08-25T21:51:07.273Z,20.63
2023-08-25T21:53:33.985Z,21.50
2023-08-25T21:56:01.661Z,18.58
2023-08-25T21:58:28.611Z,17.25
2023-08-25T22:00:55.567Z,19.40
2023-08-25T22:03:22.624Z,22.05
2023-08-25T22:05:55.156Z,21.83
2023-08-25T22:08:22.123Z,22.40
2023-08-25T22:10:48.959Z,22.60
2023-08-25T22:13:15.880Z,21.45
2023-08-25T22:15:42.606Z,21.02
2023-08-25T22:18:09.568Z,19.10
2023-08-25T22:20:36.333Z,21.65
2023-08-25T22:23:03.111Z,19.42
2023-08-25T22:25:29.861Z,19.17
2023-08-25T22:27:56.791Z,20.23
2023-08-25T22:30:23.711Z,19.05
2023-08-25T22:35:20.338Z,20.90
2023-08-25T22:37:47.083Z,20.05
2023-08-25T22:40:13.772Z,19.95
2023-08-25T22:42:40.601Z,18.95
2023-08-25T22:45:07.718Z,19.00
2023-08-25T22:47:34.889Z,19.42
2023-08-25T22:50:01.563Z,18.90
2023-08-25T22:52:28.245Z,18.23
2023-08-25T22:54:56.013Z,17.52
2023-08-25T22:57:22.694Z,16.50
2023-08-25T22:59:49.390Z,17.95
2023-08-25T23:02:16.171Z,17.73
2023-08-25T23:04:43.169Z,16.48
2023-08-25T23:07:09.824Z,16.83
2023-08-25T23:09:36.578Z,16.65
2023-08-25T23:12:03.664Z,17.05
2023-08-25T23:14:30.643Z,16.67
2023-08-25T23:16:57.376Z,17.67
2023-08-25T23:19:25.075Z,16.60
2023-08-25T23:21:51.806Z,15.27
2023-08-25T23:24:18.530Z,17.25
2023-08-25T23:26:49.484Z,16.77
2023-08-25T23:29:16.203Z,16.25
2023-08-25T23:31:43.031Z,15.23
2023-08-25T23:34:09.743Z,16.23
2023-08-25T23:36:36.556Z,15.82
2023-08-25T23:39:03.371Z,15.45
2023-08-25T23:41:30.227Z,14.30
2023-08-25T23:43:56.986Z,17.23
2023-08-25T23:46:23.680Z,15.40
2023-08-25T23:48:51.564Z,16.70
2023-08-25T23:51:18.271Z,16.60
2023-08-25T23:53:44.963Z,17.65
2023-08-25T23:56:11.710Z,17.80
2023-08-25T23:58:38.383Z,21.67
